Accueil
METAR-TAF:

METAR-TAF

Aéroports :

Aéroport de Lahr

Lahr, Allemagne

latitude: 48-22-09N, longitude: 007-49-40E, altitude: 156 m

Observation

Le bulletin a été fait il y a 11 heures et 9 minutes, à 15:50 UTC
Vent 13 kt de nord/nord-est, variant entre nord et nord-est
Température 7°C
Humidité 61%
Pression 1023 hPa
Visibilité 10 km ou plus
pas de nuages en-dessous de 1500 mètres et pas de cumulonimbus.

METAR: EDTL 161550Z 02013KT 350V050 CAVOK 07/M00 Q1023

Heure: 04:59 (02:59 UTC)

Prévision

Le bulletin a été fait il y a 12 heures et 59 minutes, à 14:00 UTC
Prévision valable du 16 à 15 UTC au 16 à 24 UTC
Vent 13 kt de nord/nord-est
Visibilité 10 km ou plus
pas de nuages en-dessous de 1500 mètres et pas de cumulonimbus.
Evoluant progressivement
du 16 à 17 UTC au 16 à 20 UTC
Vent 5 kt de nord-est

TAF: EDTL 161400Z 1615/1624 02013KT CAVOK BECMG 1617/1620 04005KT

Observations et prévisions météorologiques de plus de 4000 aéroports (messages METAR et TAF).

Les stations disponibles sont représentées par des disques jaunes et rouges sur la carte.

Passer la souris dessus pour voir le nom de la station.

Cliquer dessus pour voir les observations et prévisions météorologiques.

Pour changer de carte: cliquez sur les boutons verts avec une croix noire pour zoomer, sur le bouton vert avec un tiret pour effectuer un zoom arrière, ou sur les flèches vertes pour les cartes adjacentes.


METAR-TAF: